Aviation Digital Data Service (ADDS)

Output produced by METARs form (0318 UTC 26 February 2017)
found at http://www.aviationweather.gov/adds/metars/
 
KDEN 260209Z 2602/2706 14007KT P6SM SCT150 SCT220 
     FM260300 16008KT P6SM SCT150 SCT220 
     FM260800 21010KT P6SM SCT150 SCT220 
     FM261200 21010KT P6SM SCT220 
     FM261500 18007KT P6SM SCT220 
     FM262100 15007KT P6SM SCT220 
     FM270100 18007KT P6SM SCT220